Time;durP1;ratioP1;P1;durP2;ratioP2;P2;SDS_P1;SDS_P2;PMS_P1;PMS_P2;Temp;Humidity;BMP_temperature;BMP_pressure;BME280_temperature;BME280_humidity;BME280_pressure;Samples;Min_cycle;Max_cycle;Signal;HPM_P1;HPM_P2
2023/09/01 00:02:21;;;;;;;7.05;3.90;;;;;;;15.96;100.00;101073.91;5270396;28;20385;-76
2023/09/01 00:04:55;;;;;;;8.90;4.30;;;;;;;15.96;100.00;101071.25;5270435;28;20082;-75
2023/09/01 00:07:26;;;;;;;7.95;3.95;;;;;;;15.94;100.00;101079.34;5270124;28;20039;-76
2023/09/01 00:09:57;;;;;;;7.57;3.70;;;;;;;15.88;100.00;101076.53;5270892;28;20021;-76
2023/09/01 00:12:29;;;;;;;8.13;4.50;;;;;;;15.86;100.00;101065.28;5271133;28;20028;-74
2023/09/01 00:15:00;;;;;;;8.40;3.88;;;;;;;15.93;100.00;101061.00;5271253;28;20383;-76
2023/09/01 00:17:31;;;;;;;7.57;4.28;;;;;;;15.90;100.00;101061.31;5269994;28;20500;-77
2023/09/01 00:20:03;;;;;;;7.70;4.15;;;;;;;15.93;100.00;101063.66;5271427;28;20097;-76
2023/09/01 00:22:35;;;;;;;5.63;4.27;;;;;;;15.90;100.00;101070.06;5267942;28;20409;-76
2023/09/01 00:25:07;;;;;;;10.40;4.15;;;;;;;15.87;100.00;101067.75;5270916;28;20028;-76
2023/09/01 00:27:38;;;;;;;9.68;4.20;;;;;;;15.88;100.00;101068.59;5269806;28;20031;-76
2023/09/01 00:30:10;;;;;;;12.73;3.80;;;;;;;15.82;100.00;101051.56;5269780;28;20116;-76
2023/09/01 00:32:41;;;;;;;7.38;3.95;;;;;;;15.85;100.00;101066.28;5270011;28;20101;-76
2023/09/01 00:35:12;;;;;;;8.18;4.13;;;;;;;15.82;100.00;101054.19;5269020;28;20120;-77
2023/09/01 00:37:43;;;;;;;7.45;3.90;;;;;;;15.84;100.00;101061.97;5269703;28;20032;-76
2023/09/01 00:40:15;;;;;;;7.63;4.40;;;;;;;15.85;100.00;101050.41;5271460;28;20082;-76
2023/09/01 00:42:48;;;;;;;8.80;4.13;;;;;;;15.87;100.00;101043.16;5268665;28;20047;-77
2023/09/01 00:45:19;;;;;;;8.23;4.22;;;;;;;15.87;100.00;101048.44;5265389;28;20499;-76
2023/09/01 00:47:51;;;;;;;6.78;3.75;;;;;;;15.85;100.00;101051.25;5269355;28;20020;-76
2023/09/01 00:50:22;;;;;;;9.55;4.03;;;;;;;15.77;100.00;101040.66;5269823;28;20501;-77
2023/09/01 00:52:54;;;;;;;7.00;3.63;;;;;;;15.76;100.00;101049.56;5271065;28;20524;-76
2023/09/01 00:55:26;;;;;;;7.30;3.63;;;;;;;15.76;100.00;101044.28;5273208;28;20068;-77
2023/09/01 00:57:57;;;;;;;8.73;3.97;;;;;;;15.81;100.00;101049.91;5275586;28;20107;-76
2023/09/01 01:00:31;;;;;;;12.85;3.88;;;;;;;15.81;100.00;101037.53;5274430;28;20100;-76
2023/09/01 01:03:05;;;;;;;9.00;3.58;;;;;;;15.84;100.00;101039.03;5272576;28;20042;-74
2023/09/01 01:06:09;;;;;;;8.77;3.55;;;;;;;16.16;100.00;101051.50;5273480;28;20450;-77
2023/09/01 01:08:40;;;;;;;;;;;;;;;16.66;100.00;101055.88;5273554;28;20016;-76
2023/09/01 01:11:21;;;;;;;8.40;3.87;;;;;;;16.05;100.00;101049.16;5273436;28;19916;-76
2023/09/01 01:13:58;;;;;;;8.32;3.55;;;;;;;16.01;100.00;101051.28;5272538;28;20028;-77
2023/09/01 01:16:31;;;;;;;7.28;3.47;;;;;;;15.98;100.00;101069.28;5270959;28;20493;-75
2023/09/01 01:19:18;;;;;;;7.80;3.60;;;;;;;16.10;100.00;101048.66;5273913;28;20434;-76
2023/09/01 01:21:52;;;;;;;7.05;3.53;;;;;;;16.01;100.00;101047.81;5273094;28;20383;-75
2023/09/01 01:24:24;;;;;;;7.18;3.78;;;;;;;16.00;100.00;101047.00;5273806;28;20028;-76
2023/09/01 01:26:56;;;;;;;7.80;3.53;;;;;;;15.95;100.00;101038.75;5258084;28;20486;-76
2023/09/01 01:29:27;;;;;;;6.15;3.58;;;;;;;15.96;100.00;101047.47;5273146;28;20029;-74
2023/09/01 01:31:59;;;;;;;7.40;3.58;;;;;;;15.93;100.00;101039.88;5274042;28;20020;-76
2023/09/01 01:34:39;;;;;;;7.43;3.97;;;;;;;16.07;100.00;101044.56;5269944;28;20029;-76
2023/09/01 01:37:20;;;;;;;5.75;3.45;;;;;;;16.03;100.00;101043.22;5272582;28;20123;-76
2023/09/01 01:39:54;;;;;;;7.60;4.13;;;;;;;15.98;100.00;101048.97;5273957;28;20034;-75
2023/09/01 01:42:28;;;;;;;6.88;4.15;;;;;;;15.96;100.00;101055.41;5272828;28;20550;-76
2023/09/01 01:45:02;;;;;;;9.93;3.95;;;;;;;15.97;100.00;101057.06;5268356;28;20043;-76
2023/09/01 01:47:33;;;;;;;7.43;3.53;;;;;;;15.91;100.00;101053.25;5273844;28;20074;-76
2023/09/01 01:50:05;;;;;;;6.57;3.63;;;;;;;15.98;100.00;101058.72;5271916;28;20437;-76
2023/09/01 01:52:37;;;;;;;7.07;3.47;;;;;;;15.98;100.00;101070.09;5274310;28;20025;-76
2023/09/01 01:55:09;;;;;;;7.63;3.45;;;;;;;15.93;100.00;101061.84;5269750;28;20191;-76
2023/09/01 01:57:40;;;;;;;6.43;4.07;;;;;;;15.93;100.00;101059.19;5275649;28;20055;-76
2023/09/01 02:00:14;;;;;;;8.65;3.72;;;;;;;15.89;100.00;101062.31;5271204;28;20485;-76
2023/09/01 02:02:46;;;;;;;6.78;3.55;;;;;;;15.94;100.00;101050.28;5268579;28;20454;-76
2023/09/01 02:05:17;;;;;;;10.70;4.00;;;;;;;15.95;100.00;101051.94;5274451;28;20112;-75
2023/09/01 02:07:49;;;;;;;6.97;4.00;;;;;;;15.95;100.00;101049.31;5258357;28;20020;-77
2023/09/01 02:10:20;;;;;;;7.43;3.88;;;;;;;15.99;100.00;101044.53;5272552;28;20028;-76
2023/09/01 02:12:51;;;;;;;9.93;4.68;;;;;;;16.00;100.00;101043.53;5276402;28;20035;-77
2023/09/01 02:15:23;;;;;;;5.40;3.40;;;;;;;16.05;100.00;101041.22;5255163;28;20436;-77
2023/09/01 02:17:54;;;;;;;7.50;3.55;;;;;;;16.03;100.00;101040.56;5271050;28;20028;-76
2023/09/01 02:20:26;;;;;;;6.88;4.07;;;;;;;16.01;100.00;101034.59;5270954;28;20542;-75
2023/09/01 02:22:58;;;;;;;7.72;4.00;;;;;;;15.96;100.00;101037.75;5273284;28;20033;-76
2023/09/01 02:25:35;;;;;;;6.80;3.85;;;;;;;16.11;100.00;101035.31;5273891;28;20032;-75
2023/09/01 02:28:07;;;;;;;7.72;4.50;;;;;;;15.99;100.00;101047.16;5272475;28;20027;-76
2023/09/01 02:30:38;;;;;;;6.82;4.25;;;;;;;16.01;100.00;101055.75;5271481;28;20477;-76
2023/09/01 02:33:10;;;;;;;7.25;3.60;;;;;;;15.98;100.00;101041.03;5272164;28;20241;-77
2023/09/01 02:35:44;;;;;;;9.02;3.90;;;;;;;16.07;100.00;101039.25;5270906;28;20036;-77
2023/09/01 02:38:15;;;;;;;7.43;4.10;;;;;;;16.01;100.00;101034.59;5272885;28;20029;-76
2023/09/01 02:40:47;;;;;;;8.07;3.83;;;;;;;15.98;100.00;101027.81;5255789;28;20083;-75
2023/09/01 02:43:18;;;;;;;9.07;4.82;;;;;;;15.97;100.00;101017.41;5268250;28;20031;-77
2023/09/01 02:45:49;;;;;;;7.63;4.57;;;;;;;16.00;100.00;101022.41;5271995;28;20036;-76
2023/09/01 02:48:21;;;;;;;9.65;4.22;;;;;;;15.96;100.00;101013.13;5272311;28;20028;-76
2023/09/01 02:50:52;;;;;;;8.77;4.03;;;;;;;16.04;100.00;101023.72;5270626;28;20054;-76
2023/09/01 02:53:23;;;;;;;7.30;4.15;;;;;;;15.98;100.00;101027.00;5272115;28;20560;-74
2023/09/01 02:55:54;;;;;;;8.13;4.15;;;;;;;15.98;100.00;101029.63;5253460;28;20139;-76
2023/09/01 02:58:26;;;;;;;8.35;3.88;;;;;;;15.97;100.00;101026.19;5272456;28;20541;-74
2023/09/01 03:00:58;;;;;;;8.48;3.97;;;;;;;15.95;100.00;101030.81;5266060;28;20273;-76
2023/09/01 03:03:30;;;;;;;8.90;4.53;;;;;;;16.03;100.00;101032.66;5272468;28;20399;-76
2023/09/01 03:06:02;;;;;;;9.77;4.40;;;;;;;16.05;100.00;101026.19;5271189;28;20054;-76
2023/09/01 03:08:34;;;;;;;7.13;4.22;;;;;;;16.11;100.00;101031.84;5269617;28;20489;-76
2023/09/01 03:11:06;;;;;;;10.07;4.80;;;;;;;16.07;100.00;101033.97;5270815;28;20070;-75
2023/09/01 03:13:37;;;;;;;6.63;3.95;;;;;;;16.06;100.00;101037.59;5269739;28;20482;-76
2023/09/01 03:16:08;;;;;;;6.80;3.97;;;;;;;16.14;100.00;101031.50;5270625;28;20051;-76
2023/09/01 03:18:40;;;;;;;6.80;3.72;;;;;;;16.12;100.00;101022.91;5270708;28;20145;-76
2023/09/01 03:21:12;;;;;;;8.07;4.10;;;;;;;16.16;100.00;101025.06;5272166;28;20024;-76
2023/09/01 03:23:43;;;;;;;12.68;4.72;;;;;;;16.12;100.00;101015.81;5272034;28;20027;-76
2023/09/01 03:26:15;;;;;;;7.18;4.32;;;;;;;16.13;100.00;101025.38;5251597;28;20470;-77
2023/09/01 03:28:48;;;;;;;7.07;4.10;;;;;;;16.19;100.00;101027.38;5271499;28;20389;-76
2023/09/01 03:31:19;;;;;;;7.60;4.18;;;;;;;16.17;100.00;101023.25;5271328;28;20056;-76
2023/09/01 03:33:50;;;;;;;7.78;4.25;;;;;;;16.18;100.00;101024.91;5270209;28;20115;-77
2023/09/01 03:36:22;;;;;;;7.80;3.60;;;;;;;16.19;100.00;101031.84;5269997;28;20047;-76
2023/09/01 03:38:56;;;;;;;6.45;3.60;;;;;;;16.26;100.00;101017.81;5271422;28;20031;-75
2023/09/01 03:41:28;;;;;;;8.07;4.90;;;;;;;16.12;100.00;101009.69;5267081;28;20056;-76
2023/09/01 03:43:59;;;;;;;8.13;4.50;;;;;;;16.18;100.00;101020.47;5268915;28;20071;-75
2023/09/01 03:46:31;;;;;;;8.57;3.85;;;;;;;16.19;100.00;101008.88;5269381;28;20038;-76
2023/09/01 03:49:02;;;;;;;8.77;4.30;;;;;;;16.27;100.00;101003.59;5256138;28;20486;-76
2023/09/01 03:51:34;;;;;;;7.10;3.90;;;;;;;16.30;100.00;101011.22;5268920;28;20031;-76
2023/09/01 03:54:05;;;;;;;6.28;4.25;;;;;;;16.30;100.00;101005.94;5266056;28;20024;-76
2023/09/01 03:56:36;;;;;;;8.50;4.20;;;;;;;16.28;100.00;101010.53;5272050;28;20020;-76
2023/09/01 03:59:07;;;;;;;9.18;4.55;;;;;;;16.33;100.00;101003.94;5269847;28;20401;-75
2023/09/01 04:01:39;;;;;;;8.25;4.18;;;;;;;16.32;100.00;101000.47;5273136;28;20390;-76
2023/09/01 04:04:11;;;;;;;6.70;3.72;;;;;;;16.29;100.00;101006.09;5272933;28;20401;-76
2023/09/01 04:06:42;;;;;;;6.95;4.20;;;;;;;16.24;100.00;100993.34;5269954;28;20635;-77
2023/09/01 04:09:14;;;;;;;9.10;4.55;;;;;;;16.29;100.00;101001.63;5271474;28;20100;-76
2023/09/01 04:11:45;;;;;;;8.00;4.68;;;;;;;16.32;100.00;101004.94;5270250;28;20129;-76
2023/09/01 04:14:16;;;;;;;5.78;4.22;;;;;;;16.35;100.00;101001.97;5269242;28;20073;-76
2023/09/01 04:16:49;;;;;;;8.00;5.03;;;;;;;16.33;100.00;101006.56;5271313;28;20396;-77
2023/09/01 04:19:20;;;;;;;8.95;4.75;;;;;;;16.26;100.00;100993.22;5265289;28;20028;-75
2023/09/01 04:21:52;;;;;;;5.88;3.83;;;;;;;16.24;100.00;100992.53;5264615;28;20050;-76
2023/09/01 04:24:23;;;;;;;6.35;4.10;;;;;;;16.25;100.00;100995.03;5270422;28;20481;-76
2023/09/01 04:26:54;;;;;;;8.68;4.72;;;;;;;16.30;100.00;101000.66;5253212;28;20029;-76
2023/09/01 04:29:26;;;;;;;7.90;4.95;;;;;;;16.28;100.00;101002.59;5271501;28;20054;-76
2023/09/01 04:31:57;;;;;;;8.30;4.40;;;;;;;16.37;100.00;100994.72;5272998;28;20446;-76
2023/09/01 04:34:28;;;;;;;9.55;4.55;;;;;;;16.33;100.00;100986.28;5274442;28;20020;-74
2023/09/01 04:37:00;;;;;;;8.25;4.18;;;;;;;16.34;100.00;100981.81;5257172;28;20031;-76
2023/09/01 04:39:31;;;;;;;8.73;4.78;;;;;;;16.35;100.00;100986.09;5272417;28;20120;-75
2023/09/01 04:42:02;;;;;;;8.60;4.55;;;;;;;16.34;100.00;100987.09;5275455;28;20028;-75
2023/09/01 04:44:34;;;;;;;7.65;4.45;;;;;;;16.33;100.00;100985.44;5271201;28;20032;-76
2023/09/01 04:47:05;;;;;;;7.32;4.30;;;;;;;16.33;100.00;100985.44;5270346;28;20060;-76
2023/09/01 04:49:36;;;;;;;6.72;4.80;;;;;;;16.41;100.00;100998.69;5272202;28;20028;-76
2023/09/01 04:52:07;;;;;;;7.65;4.03;;;;;;;16.38;100.00;100994.53;5272689;28;20028;-77
2023/09/01 04:54:39;;;;;;;7.18;4.85;;;;;;;16.50;100.00;101002.97;5273552;28;20045;-76
2023/09/01 04:57:10;;;;;;;8.63;4.88;;;;;;;16.46;100.00;101015.69;5268631;28;20119;-76
2023/09/01 04:59:44;;;;;;;9.30;4.63;;;;;;;16.48;100.00;101015.53;5273699;28;20028;-76
2023/09/01 05:02:16;;;;;;;8.32;4.22;;;;;;;16.42;100.00;101009.06;5271112;28;20336;-76
2023/09/01 05:04:48;;;;;;;7.47;4.70;;;;;;;16.41;100.00;100996.03;5266254;28;20044;-77
2023/09/01 05:07:19;;;;;;;6.55;4.10;;;;;;;16.49;100.00;100993.38;5269986;28;20108;-76
2023/09/01 05:09:50;;;;;;;8.38;4.40;;;;;;;16.40;100.00;100987.28;5273968;28;20028;-76
2023/09/01 05:12:22;;;;;;;6.28;4.18;;;;;;;16.52;100.00;101003.63;5276150;28;20024;-76
2023/09/01 05:14:53;;;;;;;7.78;4.45;;;;;;;16.52;100.00;101001.81;5271820;28;20149;-76
2023/09/01 05:17:24;;;;;;;6.28;3.90;;;;;;;16.58;100.00;101000.31;5272619;28;20037;-77
2023/09/01 05:19:56;;;;;;;7.07;3.72;;;;;;;16.46;100.00;100980.50;5272334;28;20045;-76
2023/09/01 05:22:28;;;;;;;6.67;4.87;;;;;;;16.61;100.00;100993.88;5272821;28;20438;-77
2023/09/01 05:24:59;;;;;;;9.48;4.85;;;;;;;16.70;100.00;101003.44;5272089;28;20104;-75
2023/09/01 05:27:31;;;;;;;7.43;4.28;;;;;;;16.65;100.00;101003.97;5272691;28;20044;-77
2023/09/01 05:30:02;;;;;;;6.13;4.15;;;;;;;16.66;100.00;101007.44;5269963;28;20024;-76
2023/09/01 05:32:34;;;;;;;7.30;4.70;;;;;;;16.62;100.00;101006.94;5264038;28;20460;-77
2023/09/01 05:35:06;;;;;;;6.30;3.85;;;;;;;16.66;100.00;101016.19;5270849;28;20054;-76
2023/09/01 05:37:37;;;;;;;7.13;4.55;;;;;;;16.65;100.00;101011.06;5266402;28;20390;-76
2023/09/01 05:40:09;;;;;;;9.15;4.22;;;;;;;16.68;100.00;101006.28;5265078;28;20027;-75
2023/09/01 05:42:40;;;;;;;6.65;4.13;;;;;;;16.75;100.00;101017.06;5268856;28;20120;-77
2023/09/01 05:45:12;;;;;;;7.25;4.22;;;;;;;16.77;100.00;101009.75;5247368;22;20046;-70
2023/09/01 05:47:43;;;;;;;6.10;4.57;;;;;;;16.80;100.00;101021.84;5202564;28;20026;-71
2023/09/01 05:50:15;;;;;;;11.32;5.55;;;;;;;16.76;100.00;101013.41;5207157;28;20205;-71
2023/09/01 05:52:46;;;;;;;6.47;4.88;;;;;;;16.86;100.00;101013.22;5206225;28;20057;-71
2023/09/01 05:55:17;;;;;;;8.52;4.90;;;;;;;16.89;100.00;101010.25;5203668;28;20034;-71
2023/09/01 05:57:49;;;;;;;7.85;5.35;;;;;;;16.85;100.00;100993.88;5202326;28;20037;-71
2023/09/01 06:00:20;;;;;;;10.13;5.40;;;;;;;17.00;100.00;101005.44;5206391;28;20103;-71
2023/09/01 06:02:52;;;;;;;7.38;5.35;;;;;;;17.01;100.00;101006.28;5206656;28;20037;-70
2023/09/01 06:05:23;;;;;;;7.33;5.33;;;;;;;17.07;100.00;100999.47;5204159;28;20065;-71
2023/09/01 06:07:54;;;;;;;6.45;5.07;;;;;;;17.08;100.00;101012.53;5204181;28;20402;-70
2023/09/01 06:10:26;;;;;;;7.97;5.88;;;;;;;17.16;100.00;101007.25;5205978;28;20033;-70
2023/09/01 06:12:57;;;;;;;8.10;5.53;;;;;;;17.19;100.00;101009.53;5207200;28;20091;-71
2023/09/01 06:15:28;;;;;;;9.90;5.63;;;;;;;17.15;100.00;101013.50;5205635;28;20095;-71
2023/09/01 06:18:00;;;;;;;9.80;6.82;;;;;;;17.18;100.00;101001.78;5206649;28;20038;-71
2023/09/01 06:20:31;;;;;;;8.93;6.15;;;;;;;17.20;100.00;101011.22;5204268;28;20593;-71
2023/09/01 06:23:02;;;;;;;8.35;5.72;;;;;;;17.16;100.00;101017.84;5206160;28;20467;-71
2023/09/01 06:25:33;;;;;;;9.68;5.78;;;;;;;17.17;100.00;101023.94;5206637;28;20632;-70
2023/09/01 06:28:05;;;;;;;10.48;6.15;;;;;;;17.17;100.00;101021.31;5206189;28;20025;-71
2023/09/01 06:30:36;;;;;;;7.00;5.90;;;;;;;17.17;100.00;101016.84;5206456;28;20033;-71
2023/09/01 06:33:08;;;;;;;9.55;6.22;;;;;;;17.12;100.00;101016.53;5207687;28;20026;-70
2023/09/01 06:35:40;;;;;;;9.70;6.75;;;;;;;17.21;100.00;101023.44;5207473;28;20033;-70
2023/09/01 06:38:11;;;;;;;9.15;6.45;;;;;;;17.23;100.00;101018.78;5204294;28;20054;-70
2023/09/01 06:40:43;;;;;;;11.43;7.07;;;;;;;17.27;100.00;101019.28;5203905;28;20045;-71
2023/09/01 06:43:14;;;;;;;9.10;6.90;;;;;;;17.23;100.00;101025.91;5205020;28;20129;-69
2023/09/01 06:45:45;;;;;;;9.63;7.15;;;;;;;17.23;100.00;101021.44;5200321;28;20393;-71
2023/09/01 06:48:17;;;;;;;10.48;7.28;;;;;;;17.31;100.00;101023.22;5205841;28;20395;-71
2023/09/01 06:50:48;;;;;;;10.98;7.20;;;;;;;17.31;100.00;101017.94;5202057;28;20514;-71
2023/09/01 06:53:19;;;;;;;10.80;7.30;;;;;;;17.40;100.00;101024.06;5205010;28;20489;-71
2023/09/01 06:55:50;;;;;;;10.05;6.65;;;;;;;17.38;100.00;101024.22;5204942;28;20040;-70
2023/09/01 06:58:22;;;;;;;9.30;6.63;;;;;;;17.48;100.00;101024.84;5203563;28;20107;-71
2023/09/01 07:00:53;;;;;;;10.07;7.20;;;;;;;17.49;100.00;101023.03;5205433;28;20293;-69
2023/09/01 07:03:24;;;;;;;9.35;6.70;;;;;;;17.52;100.00;101012.91;5205885;28;20088;-71
2023/09/01 07:05:56;;;;;;;10.00;7.18;;;;;;;17.53;100.00;101016.38;5206247;28;20038;-70
2023/09/01 07:08:28;;;;;;;10.68;7.55;;;;;;;17.49;100.00;101005.31;5202839;28;20057;-69
2023/09/01 07:11:03;;;;;;;11.55;7.38;;;;;;;17.60;100.00;100998.81;5205079;28;20075;-71
2023/09/01 07:13:34;;;;;;;10.57;7.75;;;;;;;17.48;100.00;101000.19;5206220;28;20065;-71
2023/09/01 07:16:06;;;;;;;12.50;8.38;;;;;;;17.54;100.00;101002.16;5202031;28;20121;-70
2023/09/01 07:18:37;;;;;;;11.43;8.50;;;;;;;17.54;100.00;101002.16;5204481;28;20064;-70
2023/09/01 07:21:09;;;;;;;13.95;8.68;;;;;;;17.54;100.00;101004.81;5202343;28;20367;-69
2023/09/01 07:23:40;;;;;;;8.85;7.45;;;;;;;17.61;100.00;101000.44;5203305;28;20479;-71
2023/09/01 07:26:11;;;;;;;8.93;7.55;;;;;;;17.60;100.00;101004.09;5204623;28;20430;-71
2023/09/01 07:28:43;;;;;;;11.27;8.00;;;;;;;17.59;100.00;101010.41;5204477;28;20962;-71
2023/09/01 07:31:14;;;;;;;10.00;8.85;;;;;;;17.57;100.00;101003.63;5200014;28;20471;-71
2023/09/01 07:33:46;;;;;;;10.88;7.85;;;;;;;17.59;100.00;100999.00;5199997;28;20034;-71
2023/09/01 07:36:17;;;;;;;9.82;8.45;;;;;;;17.57;100.00;101004.44;5202513;28;20388;-71
2023/09/01 07:38:48;;;;;;;9.25;7.78;;;;;;;17.51;100.00;100997.19;5204369;28;20209;-71
2023/09/01 07:41:20;;;;;;;11.35;8.93;;;;;;;17.56;100.00;101004.63;5201878;28;20487;-71
2023/09/01 07:43:51;;;;;;;12.15;8.63;;;;;;;17.54;100.00;101003.97;5204052;28;20072;-70
2023/09/01 07:46:22;;;;;;;11.60;8.40;;;;;;;17.57;100.00;101006.28;5204848;28;20100;-70
2023/09/01 07:48:55;;;;;;;10.82;8.07;;;;;;;17.62;100.00;100996.00;5204981;28;20342;-70
2023/09/01 07:51:27;;;;;;;11.50;8.63;;;;;;;17.56;100.00;101010.75;5203244;28;20051;-72
2023/09/01 07:53:59;;;;;;;11.05;8.40;;;;;;;17.55;100.00;101003.81;5204719;28;20479;-72
2023/09/01 07:56:32;;;;;;;12.23;8.77;;;;;;;17.67;100.00;101006.91;5204959;28;20026;-72
2023/09/01 07:59:03;;;;;;;;;;;;;;;18.32;100.00;100995.94;5209685;28;20033;-70
2023/09/01 08:01:34;;;;;;;9.77;8.75;;;;;;;17.69;100.00;101011.03;5200324;28;19926;-72
2023/09/01 08:04:05;;;;;;;10.55;8.50;;;;;;;17.69;100.00;101011.03;5205653;28;20046;-72
2023/09/01 08:06:37;;;;;;;11.27;8.10;;;;;;;17.70;100.00;101015.34;5207057;28;20068;-72
2023/09/01 08:09:08;;;;;;;9.68;7.63;;;;;;;17.73;100.00;101016.81;5207124;28;20263;-72
2023/09/01 08:11:39;;;;;;;12.07;8.02;;;;;;;17.77;100.00;101019.94;5204008;28;20037;-71
2023/09/01 08:14:10;;;;;;;11.88;8.48;;;;;;;17.79;100.00;101020.63;5185816;28;20330;-70
2023/09/01 08:16:42;;;;;;;9.02;8.13;;;;;;;17.77;100.00;101025.25;5202585;28;20075;-72
2023/09/01 08:19:14;;;;;;;10.70;8.13;;;;;;;17.76;100.00;101024.44;5203992;28;20029;-72
2023/09/01 08:21:45;;;;;;;10.20;7.88;;;;;;;17.81;100.00;101026.59;5204437;28;20033;-71
2023/09/01 08:24:16;;;;;;;9.13;8.10;;;;;;;17.83;100.00;101027.22;5202477;28;20025;-72
2023/09/01 08:26:48;;;;;;;8.98;8.15;;;;;;;17.80;100.00;101032.88;5205043;28;20076;-72
2023/09/01 08:29:19;;;;;;;8.60;7.70;;;;;;;17.80;100.00;101027.56;5203035;28;20610;-70
2023/09/01 08:31:50;;;;;;;8.40;7.60;;;;;;;17.83;100.00;101027.22;5200217;28;20073;-71
2023/09/01 08:34:22;;;;;;;8.30;7.50;;;;;;;17.82;100.00;101028.22;5201780;28;20080;-72
2023/09/01 08:36:53;;;;;;;9.00;8.07;;;;;;;17.78;100.00;101043.66;5202438;28;20030;-72
2023/09/01 08:39:24;;;;;;;9.35;8.00;;;;;;;17.80;100.00;101036.34;5204405;28;20030;-72
2023/09/01 08:41:56;;;;;;;8.63;7.82;;;;;;;17.83;100.00;101051.91;5204548;28;20100;-72
2023/09/01 08:44:29;;;;;;;8.13;7.28;;;;;;;17.81;100.00;101047.78;5202513;28;20033;-71
2023/09/01 08:47:00;;;;;;;8.73;7.82;;;;;;;17.89;100.00;101055.69;5196896;28;20026;-72
2023/09/01 08:49:32;;;;;;;9.60;8.63;;;;;;;17.93;100.00;101064.97;5202764;28;20045;-72
2023/09/01 08:52:04;;;;;;;9.80;7.72;;;;;;;17.96;100.00;101070.75;5204787;28;20455;-70
2023/09/01 08:54:37;;;;;;;7.90;7.20;;;;;;;17.94;100.00;101053.34;5203775;28;20034;-72
2023/09/01 08:57:08;;;;;;;8.77;7.32;;;;;;;17.96;100.00;101059.31;5203769;28;20292;-72
2023/09/01 08:59:42;;;;;;;8.70;7.82;;;;;;;18.05;100.00;101057.44;5206041;28;20454;-71
2023/09/01 09:02:13;;;;;;;8.15;7.45;;;;;;;17.95;100.00;101050.50;5203927;28;20029;-72
2023/09/01 09:04:46;;;;;;;7.55;6.85;;;;;;;17.96;100.00;101054.00;5206378;28;20722;-72
2023/09/01 09:07:20;;;;;;;7.80;7.05;;;;;;;17.96;100.00;101072.56;5203754;28;20624;-72
2023/09/01 09:09:56;;;;;;;8.23;7.45;;;;;;;18.04;100.00;101072.53;5204287;28;20090;-72
2023/09/01 09:12:54;;;;;;;8.38;7.53;;;;;;;18.33;100.00;101060.41;5204906;28;20061;-71
2023/09/01 09:15:25;;;;;;;8.13;7.43;;;;;;;17.95;100.00;101066.41;5204730;28;20049;-71
2023/09/01 09:17:56;;;;;;;7.85;7.15;;;;;;;18.03;100.00;101070.03;5209018;28;20487;-71
2023/09/01 09:20:36;;;;;;;8.32;7.53;;;;;;;18.15;100.00;101064.19;5211963;28;20037;-71
2023/09/01 09:23:08;;;;;;;8.68;7.28;;;;;;;17.98;100.00;101062.59;5208512;28;20032;-72
2023/09/01 09:25:39;;;;;;;8.52;7.72;;;;;;;18.04;100.00;101061.91;5209212;28;20025;-70
2023/09/01 09:28:16;;;;;;;7.32;6.72;;;;;;;18.04;100.00;101058.44;5206891;28;20029;-72
2023/09/01 09:30:52;;;;;;;7.03;6.43;;;;;;;18.11;100.00;101068.19;5209741;28;20038;-70
2023/09/01 09:33:28;;;;;;;7.00;6.40;;;;;;;18.17;100.00;101072.78;5210221;28;20451;-71
2023/09/01 09:36:00;;;;;;;6.75;6.15;;;;;;;18.09;100.00;101072.81;5211371;28;20478;-70
2023/09/01 09:38:43;;;;;;;6.40;5.80;;;;;;;18.31;100.00;101073.03;5208518;28;20118;-72
2023/09/01 09:41:14;;;;;;;6.35;5.75;;;;;;;18.17;100.00;101075.44;5210571;28;20051;-71
2023/09/01 09:43:49;;;;;;;6.57;5.97;;;;;;;18.21;100.00;101089.97;5211527;28;20030;-71
2023/09/01 09:46:21;;;;;;;6.35;5.80;;;;;;;18.20;100.00;101083.03;5207681;28;20053;-72
2023/09/01 09:48:54;;;;;;;6.05;5.47;;;;;;;18.25;100.00;101082.50;5213258;28;20114;-71
2023/09/01 09:51:25;;;;;;;5.72;5.18;;;;;;;18.22;100.00;101088.16;5211673;28;20064;-72
2023/09/01 09:53:58;;;;;;;5.60;4.97;;;;;;;18.27;100.00;101083.19;5212999;28;20073;-72
2023/09/01 09:56:33;;;;;;;5.30;4.65;;;;;;;18.26;100.00;101078.88;5209021;28;20112;-71
2023/09/01 09:59:05;;;;;;;4.88;4.38;;;;;;;18.26;100.00;101075.38;5214340;28;20045;-72
2023/09/01 10:01:41;;;;;;;4.80;4.40;;;;;;;18.40;100.00;101078.09;5213048;28;20060;-72
2023/09/01 10:04:13;;;;;;;5.47;3.97;;;;;;;18.29;100.00;101072.38;5208683;28;20390;-72
2023/09/01 10:06:44;;;;;;;4.43;4.03;;;;;;;18.34;100.00;101062.09;5207211;28;20025;-72
2023/09/01 10:09:18;;;;;;;4.55;4.15;;;;;;;18.32;100.00;101059.59;5210170;28;20156;-72
2023/09/01 10:11:49;;;;;;;4.45;3.38;;;;;;;18.36;100.00;101060.91;5207468;28;20798;-71
2023/09/01 10:14:23;;;;;;;4.15;3.13;;;;;;;18.45;100.00;101065.16;5207439;28;20034;-71
2023/09/01 10:16:55;;;;;;;3.90;3.30;;;;;;;18.42;100.00;101062.03;5202821;28;20030;-72
2023/09/01 10:19:27;;;;;;;3.50;3.20;;;;;;;18.52;100.00;101067.09;5203379;28;20038;-71
2023/09/01 10:21:58;;;;;;;3.38;3.08;;;;;;;18.55;100.00;101066.75;5203045;28;20381;-72
2023/09/01 10:24:29;;;;;;;3.90;3.50;;;;;;;18.61;100.00;101066.03;5204429;28;20162;-72
2023/09/01 10:27:08;;;;;;;3.92;3.47;;;;;;;18.79;100.00;101077.22;5206781;28;20034;-72
2023/09/01 10:29:40;;;;;;;4.03;3.63;;;;;;;18.65;100.00;101064.69;5202327;28;20605;-73
2023/09/01 10:32:18;;;;;;;4.18;3.78;;;;;;;18.82;100.00;101068.06;5208121;28;20124;-70
2023/09/01 10:34:56;;;;;;;6.28;4.68;;;;;;;18.88;100.00;101070.81;5209689;28;20068;-71
2023/09/01 10:37:30;;;;;;;4.18;3.72;;;;;;;18.76;100.00;101072.25;5206458;28;20450;-71
2023/09/01 10:40:04;;;;;;;3.80;2.85;;;;;;;18.83;100.00;101072.38;5205561;28;20483;-71
2023/09/01 10:42:48;;;;;;;5.05;3.53;;;;;;;18.91;100.00;101067.81;5207390;28;20014;-71
2023/09/01 10:45:21;;;;;;;3.67;3.38;;;;;;;18.91;100.00;101081.09;5205755;28;20085;-71
2023/09/01 10:47:53;;;;;;;3.30;2.97;;;;;;;18.98;100.00;101085.66;5203263;28;20025;-70
2023/09/01 10:50:24;;;;;;;3.47;3.17;;;;;;;19.07;100.00;101096.06;5203364;28;20339;-72
2023/09/01 10:53:27;;;;;;;3.50;3.20;;;;;;;19.41;100.00;101094.75;5203610;28;20083;-72
2023/09/01 10:56:15;;;;;;;4.33;3.57;;;;;;;19.36;100.00;101105.09;5203633;28;20780;-72
2023/09/01 10:58:51;;;;;;;4.60;3.50;;;;;;;19.24;100.00;101101.22;5203069;28;20483;-71
2023/09/01 11:01:31;;;;;;;2.95;2.60;;;;;;;19.37;100.00;101096.94;5200962;28;20037;-72
2023/09/01 11:04:28;;;;;;;2.95;2.60;;;;;;;19.70;100.00;101096.63;5203239;28;20037;-71
2023/09/01 11:07:01;;;;;;;3.55;2.70;;;;;;;19.37;100.00;101085.50;5202112;28;20033;-72
2023/09/01 11:09:35;;;;;;;3.38;2.90;;;;;;;19.42;100.00;101091.06;5198259;28;20030;-71
2023/09/01 11:12:07;;;;;;;3.88;2.70;;;;;;;19.41;100.00;101086.78;5202792;28;20061;-71
2023/09/01 11:14:55;;;;;;;3.05;2.50;;;;;;;19.77;100.00;101083.41;5204627;28;20499;-71
2023/09/01 11:17:40;;;;;;;3.58;2.28;;;;;;;19.84;100.00;101085.13;5205203;28;20040;-72
2023/09/01 11:20:13;;;;;;;2.55;2.03;;;;;;;19.73;100.00;101084.78;5199715;28;21017;-72
2023/09/01 11:22:45;;;;;;;2.28;2.08;;;;;;;19.77;100.00;101088.72;5200525;28;20022;-72
2023/09/01 11:25:17;;;;;;;2.42;2.08;;;;;;;19.90;100.00;101084.41;5202322;28;20036;-72
2023/09/01 11:27:50;;;;;;;3.13;2.38;;;;;;;19.97;100.00;101091.66;5201329;28;20022;-72
2023/09/01 11:30:21;;;;;;;3.28;2.22;;;;;;;19.95;100.00;101085.69;5198916;28;20505;-70
2023/09/01 11:32:52;;;;;;;2.13;1.90;;;;;;;20.05;100.00;101099.53;5201225;28;20029;-72
2023/09/01 11:35:27;;;;;;;2.90;2.00;;;;;;;20.10;100.00;101091.78;5204899;28;20044;-71
2023/09/01 11:37:58;;;;;;;2.05;1.70;;;;;;;20.31;100.00;101096.34;5197404;28;20025;-72
2023/09/01 11:40:32;;;;;;;2.50;1.63;;;;;;;20.45;100.00;101106.09;5197772;28;20534;-72
2023/09/01 11:43:03;;;;;;;2.67;1.50;;;;;;;20.40;100.00;101113.84;5201069;28;20029;-71